sensor_id;sensor_type;location;lat;lon;timestamp;temperature;humidity
52509;DHT22;38420;53.150;6.370;2023-04-03T00:01:32;3.00;99.90
52509;DHT22;38420;53.150;6.370;2023-04-03T00:03:58;3.00;99.90
52509;DHT22;38420;53.150;6.370;2023-04-03T00:06:25;3.00;99.90
52509;DHT22;38420;53.150;6.370;2023-04-03T00:08:52;2.90;99.90
52509;DHT22;38420;53.150;6.370;2023-04-03T00:11:18;2.90;99.90
52509;DHT22;38420;53.150;6.370;2023-04-03T00:13:44;2.90;99.90
52509;DHT22;38420;53.150;6.370;2023-04-03T00:16:11;2.90;99.90
52509;DHT22;38420;53.150;6.370;2023-04-03T00:18:37;2.80;99.90
52509;DHT22;38420;53.150;6.370;2023-04-03T00:21:04;2.80;99.90
52509;DHT22;38420;53.150;6.370;2023-04-03T00:23:30;2.80;99.90
52509;DHT22;38420;53.150;6.370;2023-04-03T00:25:55;2.80;99.90
52509;DHT22;38420;53.150;6.370;2023-04-03T00:28:21;2.80;99.90
52509;DHT22;38420;53.150;6.370;2023-04-03T00:30:49;2.70;99.90
52509;DHT22;38420;53.150;6.370;2023-04-03T00:33:15;2.70;99.90
52509;DHT22;38420;53.150;6.370;2023-04-03T00:35:41;2.70;99.90
52509;DHT22;38420;53.150;6.370;2023-04-03T00:38:06;2.70;99.90
52509;DHT22;38420;53.150;6.370;2023-04-03T00:40:39;2.60;99.90
52509;DHT22;38420;53.150;6.370;2023-04-03T00:43:15;2.60;99.90
52509;DHT22;38420;53.150;6.370;2023-04-03T00:45:44;2.60;99.90
52509;DHT22;38420;53.150;6.370;2023-04-03T00:48:13;2.50;99.90
52509;DHT22;38420;53.150;6.370;2023-04-03T00:50:42;2.50;99.90
52509;DHT22;38420;53.150;6.370;2023-04-03T00:53:12;2.50;99.90
52509;DHT22;38420;53.150;6.370;2023-04-03T00:55:39;2.40;99.90
52509;DHT22;38420;53.150;6.370;2023-04-03T00:58:07;2.40;99.90
52509;DHT22;38420;53.150;6.370;2023-04-03T01:00:34;2.40;99.90
52509;DHT22;38420;53.150;6.370;2023-04-03T01:03:01;2.30;99.90
52509;DHT22;38420;53.150;6.370;2023-04-03T01:05:26;2.30;99.90
52509;DHT22;38420;53.150;6.370;2023-04-03T01:07:52;2.30;99.90
52509;DHT22;38420;53.150;6.370;2023-04-03T01:10:19;2.20;99.90
52509;DHT22;38420;53.150;6.370;2023-04-03T01:12:47;2.20;99.90
52509;DHT22;38420;53.150;6.370;2023-04-03T01:15:20;2.20;99.90
52509;DHT22;38420;53.150;6.370;2023-04-03T01:17:56;2.10;99.90
52509;DHT22;38420;53.150;6.370;2023-04-03T01:20:35;2.10;99.90
52509;DHT22;38420;53.150;6.370;2023-04-03T01:25:46;2.10;99.90
52509;DHT22;38420;53.150;6.370;2023-04-03T01:28:15;2.00;99.90
52509;DHT22;38420;53.150;6.370;2023-04-03T01:30:48;2.00;99.90
52509;DHT22;38420;53.150;6.370;2023-04-03T01:33:15;2.00;99.90
52509;DHT22;38420;53.150;6.370;2023-04-03T01:35:41;1.90;99.90
52509;DHT22;38420;53.150;6.370;2023-04-03T01:38:06;1.90;99.90
52509;DHT22;38420;53.150;6.370;2023-04-03T01:40:32;1.80;99.90
52509;DHT22;38420;53.150;6.370;2023-04-03T01:42:58;1.90;99.90
52509;DHT22;38420;53.150;6.370;2023-04-03T01:45:23;1.80;99.90
52509;DHT22;38420;53.150;6.370;2023-04-03T01:47:49;1.80;99.90
52509;DHT22;38420;53.150;6.370;2023-04-03T01:50:15;1.70;99.90
52509;DHT22;38420;53.150;6.370;2023-04-03T01:52:40;1.70;99.90
52509;DHT22;38420;53.150;6.370;2023-04-03T01:55:06;1.70;99.90
52509;DHT22;38420;53.150;6.370;2023-04-03T01:57:32;1.60;99.90
52509;DHT22;38420;53.150;6.370;2023-04-03T01:59:58;1.60;99.90
52509;DHT22;38420;53.150;6.370;2023-04-03T02:02:23;1.70;99.90
52509;DHT22;38420;53.150;6.370;2023-04-03T02:04:49;1.60;99.90
52509;DHT22;38420;53.150;6.370;2023-04-03T02:07:14;1.50;99.90
52509;DHT22;38420;53.150;6.370;2023-04-03T02:09:40;1.50;99.90
52509;DHT22;38420;53.150;6.370;2023-04-03T02:12:06;1.50;99.90
52509;DHT22;38420;53.150;6.370;2023-04-03T02:14:31;1.60;99.90
52509;DHT22;38420;53.150;6.370;2023-04-03T02:16:57;1.50;99.90
52509;DHT22;38420;53.150;6.370;2023-04-03T02:19:23;1.50;99.90
52509;DHT22;38420;53.150;6.370;2023-04-03T02:21:49;1.50;99.90
52509;DHT22;38420;53.150;6.370;2023-04-03T02:24:14;1.50;99.90
52509;DHT22;38420;53.150;6.370;2023-04-03T02:26:40;1.40;99.90
52509;DHT22;38420;53.150;6.370;2023-04-03T02:29:05;1.30;99.90
52509;DHT22;38420;53.150;6.370;2023-04-03T02:31:31;1.30;99.90
52509;DHT22;38420;53.150;6.370;2023-04-03T02:33:57;1.30;99.90
52509;DHT22;38420;53.150;6.370;2023-04-03T02:36:22;1.30;99.90
52509;DHT22;38420;53.150;6.370;2023-04-03T02:38:48;1.20;99.90
52509;DHT22;38420;53.150;6.370;2023-04-03T02:41:13;1.20;99.90
52509;DHT22;38420;53.150;6.370;2023-04-03T02:43:40;1.30;99.90
52509;DHT22;38420;53.150;6.370;2023-04-03T02:46:05;1.20;99.90
52509;DHT22;38420;53.150;6.370;2023-04-03T02:48:32;1.10;99.90
52509;DHT22;38420;53.150;6.370;2023-04-03T02:50:58;1.20;99.90
52509;DHT22;38420;53.150;6.370;2023-04-03T02:53:24;1.10;99.90
52509;DHT22;38420;53.150;6.370;2023-04-03T02:55:49;1.20;99.90
52509;DHT22;38420;53.150;6.370;2023-04-03T02:58:15;1.20;99.90
52509;DHT22;38420;53.150;6.370;2023-04-03T03:00:41;1.10;99.90
52509;DHT22;38420;53.150;6.370;2023-04-03T03:03:07;1.10;99.90
52509;DHT22;38420;53.150;6.370;2023-04-03T03:05:33;1.00;99.90
52509;DHT22;38420;53.150;6.370;2023-04-03T03:07:58;0.90;99.90
52509;DHT22;38420;53.150;6.370;2023-04-03T03:10:24;0.80;99.90
52509;DHT22;38420;53.150;6.370;2023-04-03T03:12:50;0.80;99.90
52509;DHT22;38420;53.150;6.370;2023-04-03T03:15:16;0.90;99.90
52509;DHT22;38420;53.150;6.370;2023-04-03T03:17:43;1.20;99.90
52509;DHT22;38420;53.150;6.370;2023-04-03T03:20:09;0.90;99.90
52509;DHT22;38420;53.150;6.370;2023-04-03T03:22:35;0.90;99.90
52509;DHT22;38420;53.150;6.370;2023-04-03T03:25:01;0.70;99.90
52509;DHT22;38420;53.150;6.370;2023-04-03T03:27:28;0.70;99.90
52509;DHT22;38420;53.150;6.370;2023-04-03T03:29:53;0.70;99.90
52509;DHT22;38420;53.150;6.370;2023-04-03T03:32:19;0.80;99.90
52509;DHT22;38420;53.150;6.370;2023-04-03T03:34:44;0.60;99.90
52509;DHT22;38420;53.150;6.370;2023-04-03T03:37:10;0.60;99.90
52509;DHT22;38420;53.150;6.370;2023-04-03T03:39:36;0.50;99.90
52509;DHT22;38420;53.150;6.370;2023-04-03T03:42:01;0.50;99.90
52509;DHT22;38420;53.150;6.370;2023-04-03T03:44:27;0.40;99.90
52509;DHT22;38420;53.150;6.370;2023-04-03T03:46:54;0.40;99.90
52509;DHT22;38420;53.150;6.370;2023-04-03T03:49:20;0.40;99.90
52509;DHT22;38420;53.150;6.370;2023-04-03T03:51:46;0.40;99.90
52509;DHT22;38420;53.150;6.370;2023-04-03T03:54:12;0.40;99.90
52509;DHT22;38420;53.150;6.370;2023-04-03T03:56:38;0.40;99.90
52509;DHT22;38420;53.150;6.370;2023-04-03T03:59:05;0.50;99.90
52509;DHT22;38420;53.150;6.370;2023-04-03T04:01:31;0.20;99.90
52509;DHT22;38420;53.150;6.370;2023-04-03T04:03:56;0.20;99.90
52509;DHT22;38420;53.150;6.370;2023-04-03T04:06:22;0.50;99.90
52509;DHT22;38420;53.150;6.370;2023-04-03T04:08:48;0.30;99.90
52509;DHT22;38420;53.150;6.370;2023-04-03T04:11:14;0.40;99.90
52509;DHT22;38420;53.150;6.370;2023-04-03T04:13:40;0.20;99.90
52509;DHT22;38420;53.150;6.370;2023-04-03T04:16:06;0.40;99.90
52509;DHT22;38420;53.150;6.370;2023-04-03T04:18:32;0.10;99.90
52509;DHT22;38420;53.150;6.370;2023-04-03T04:20:58;0.20;99.90
52509;DHT22;38420;53.150;6.370;2023-04-03T04:23:23;0.10;99.90
52509;DHT22;38420;53.150;6.370;2023-04-03T04:25:50;0.40;99.90
52509;DHT22;38420;53.150;6.370;2023-04-03T04:28:16;0.30;99.90
52509;DHT22;38420;53.150;6.370;2023-04-03T04:30:42;0.00;99.90
52509;DHT22;38420;53.150;6.370;2023-04-03T04:33:08;0.10;99.90
52509;DHT22;38420;53.150;6.370;2023-04-03T04:35:34;0.10;99.90
52509;DHT22;38420;53.150;6.370;2023-04-03T04:38:00;0.20;99.90
52509;DHT22;38420;53.150;6.370;2023-04-03T04:40:26;0.30;99.90
52509;DHT22;38420;53.150;6.370;2023-04-03T04:42:51;0.30;99.90
52509;DHT22;38420;53.150;6.370;2023-04-03T04:45:17;0.00;99.90
52509;DHT22;38420;53.150;6.370;2023-04-03T04:47:43;0.20;99.90
52509;DHT22;38420;53.150;6.370;2023-04-03T04:50:09;0.00;99.90
52509;DHT22;38420;53.150;6.370;2023-04-03T04:52:35;0.00;99.90
52509;DHT22;38420;53.150;6.370;2023-04-03T04:55:00;0.00;99.90
52509;DHT22;38420;53.150;6.370;2023-04-03T04:57:26;0.00;99.90
52509;DHT22;38420;53.150;6.370;2023-04-03T04:59:51;0.20;99.90
52509;DHT22;38420;53.150;6.370;2023-04-03T05:02:17;0.20;99.90
52509;DHT22;38420;53.150;6.370;2023-04-03T05:04:44;0.20;99.90
52509;DHT22;38420;53.150;6.370;2023-04-03T05:07:10;-0.10;99.90
52509;DHT22;38420;53.150;6.370;2023-04-03T05:09:35;-0.10;99.90
52509;DHT22;38420;53.150;6.370;2023-04-03T05:12:01;0.10;99.90
52509;DHT22;38420;53.150;6.370;2023-04-03T05:14:28;-0.10;99.90
52509;DHT22;38420;53.150;6.370;2023-04-03T05:16:54;-0.10;99.90
52509;DHT22;38420;53.150;6.370;2023-04-03T05:19:23;0.00;99.90
52509;DHT22;38420;53.150;6.370;2023-04-03T05:21:48;-0.10;99.90
52509;DHT22;38420;53.150;6.370;2023-04-03T05:24:15;0.00;99.90
52509;DHT22;38420;53.150;6.370;2023-04-03T05:26:42;0.10;99.90
52509;DHT22;38420;53.150;6.370;2023-04-03T05:29:08;-0.20;99.90
52509;DHT22;38420;53.150;6.370;2023-04-03T05:31:34;-0.20;99.90
52509;DHT22;38420;53.150;6.370;2023-04-03T05:34:00;0.00;99.90
52509;DHT22;38420;53.150;6.370;2023-04-03T05:36:26;0.20;99.90
52509;DHT22;38420;53.150;6.370;2023-04-03T05:38:52;0.00;99.90
52509;DHT22;38420;53.150;6.370;2023-04-03T05:41:18;0.20;99.90
52509;DHT22;38420;53.150;6.370;2023-04-03T05:43:43;0.00;99.90
52509;DHT22;38420;53.150;6.370;2023-04-03T05:46:14;0.20;99.90
52509;DHT22;38420;53.150;6.370;2023-04-03T05:48:40;0.20;99.90
52509;DHT22;38420;53.150;6.370;2023-04-03T05:51:07;0.20;99.90
52509;DHT22;38420;53.150;6.370;2023-04-03T05:53:35;0.10;99.90
52509;DHT22;38420;53.150;6.370;2023-04-03T05:56:03;0.20;99.90
52509;DHT22;38420;53.150;6.370;2023-04-03T05:58:28;0.30;99.90
52509;DHT22;38420;53.150;6.370;2023-04-03T06:00:54;0.00;99.90
52509;DHT22;38420;53.150;6.370;2023-04-03T06:03:20;0.40;99.90
52509;DHT22;38420;53.150;6.370;2023-04-03T06:05:46;0.20;99.90
52509;DHT22;38420;53.150;6.370;2023-04-03T06:08:11;0.50;99.90
52509;DHT22;38420;53.150;6.370;2023-04-03T06:10:38;0.20;99.90
52509;DHT22;38420;53.150;6.370;2023-04-03T06:13:04;0.20;99.90
52509;DHT22;38420;53.150;6.370;2023-04-03T06:15:29;0.40;99.90
52509;DHT22;38420;53.150;6.370;2023-04-03T06:17:55;0.60;99.90
52509;DHT22;38420;53.150;6.370;2023-04-03T06:20:21;0.60;99.90
52509;DHT22;38420;53.150;6.370;2023-04-03T06:22:47;0.40;99.90
52509;DHT22;38420;53.150;6.370;2023-04-03T06:25:13;0.70;99.90
52509;DHT22;38420;53.150;6.370;2023-04-03T06:27:40;0.60;99.90
52509;DHT22;38420;53.150;6.370;2023-04-03T06:30:06;0.70;99.90
52509;DHT22;38420;53.150;6.370;2023-04-03T06:32:32;0.90;99.90
52509;DHT22;38420;53.150;6.370;2023-04-03T06:34:57;0.70;99.90
52509;DHT22;38420;53.150;6.370;2023-04-03T06:37:24;1.00;99.90
52509;DHT22;38420;53.150;6.370;2023-04-03T06:39:54;0.90;99.90
52509;DHT22;38420;53.150;6.370;2023-04-03T06:42:20;0.90;99.90
52509;DHT22;38420;53.150;6.370;2023-04-03T06:44:46;1.10;99.90
52509;DHT22;38420;53.150;6.370;2023-04-03T06:47:16;1.20;99.90
52509;DHT22;38420;53.150;6.370;2023-04-03T06:49:42;1.10;99.90
52509;DHT22;38420;53.150;6.370;2023-04-03T06:52:08;1.10;99.90
52509;DHT22;38420;53.150;6.370;2023-04-03T06:54:35;1.30;99.90
52509;DHT22;38420;53.150;6.370;2023-04-03T06:57:01;1.30;99.90
52509;DHT22;38420;53.150;6.370;2023-04-03T06:59:27;1.30;99.90
52509;DHT22;38420;53.150;6.370;2023-04-03T07:01:53;1.60;99.90
52509;DHT22;38420;53.150;6.370;2023-04-03T07:04:19;1.60;99.90
52509;DHT22;38420;53.150;6.370;2023-04-03T07:06:46;1.70;99.90
52509;DHT22;38420;53.150;6.370;2023-04-03T07:09:13;1.80;99.90
52509;DHT22;38420;53.150;6.370;2023-04-03T07:11:39;1.70;99.90
52509;DHT22;38420;53.150;6.370;2023-04-03T07:14:04;1.80;99.90
52509;DHT22;38420;53.150;6.370;2023-04-03T07:16:31;2.00;99.90
52509;DHT22;38420;53.150;6.370;2023-04-03T07:18:57;2.00;99.90
52509;DHT22;38420;53.150;6.370;2023-04-03T07:21:23;2.00;99.90
52509;DHT22;38420;53.150;6.370;2023-04-03T07:23:49;2.10;99.90
52509;DHT22;38420;53.150;6.370;2023-04-03T07:26:15;2.20;99.90
52509;DHT22;38420;53.150;6.370;2023-04-03T07:28:41;2.30;99.90
52509;DHT22;38420;53.150;6.370;2023-04-03T07:31:10;2.40;99.90
52509;DHT22;38420;53.150;6.370;2023-04-03T07:33:39;2.50;99.90
52509;DHT22;38420;53.150;6.370;2023-04-03T07:36:06;2.70;99.90
52509;DHT22;38420;53.150;6.370;2023-04-03T07:38:33;2.70;99.90
52509;DHT22;38420;53.150;6.370;2023-04-03T07:40:59;3.50;99.90
52509;DHT22;38420;53.150;6.370;2023-04-03T07:43:25;2.90;99.90
52509;DHT22;38420;53.150;6.370;2023-04-03T07:45:51;2.90;99.90
52509;DHT22;38420;53.150;6.370;2023-04-03T07:48:23;3.00;99.90
52509;DHT22;38420;53.150;6.370;2023-04-03T07:50:49;3.10;99.90
52509;DHT22;38420;53.150;6.370;2023-04-03T07:53:15;3.10;99.90
52509;DHT22;38420;53.150;6.370;2023-04-03T07:55:41;3.30;99.90
52509;DHT22;38420;53.150;6.370;2023-04-03T07:58:11;3.40;99.90
52509;DHT22;38420;53.150;6.370;2023-04-03T08:00:37;3.50;99.90
52509;DHT22;38420;53.150;6.370;2023-04-03T08:03:04;3.60;99.90
52509;DHT22;38420;53.150;6.370;2023-04-03T08:05:29;3.70;99.90
52509;DHT22;38420;53.150;6.370;2023-04-03T08:07:55;3.80;99.90
52509;DHT22;38420;53.150;6.370;2023-04-03T08:10:21;4.00;99.90
52509;DHT22;38420;53.150;6.370;2023-04-03T08:12:48;4.10;99.90
52509;DHT22;38420;53.150;6.370;2023-04-03T08:15:14;4.20;99.90
52509;DHT22;38420;53.150;6.370;2023-04-03T08:17:40;4.20;99.90
52509;DHT22;38420;53.150;6.370;2023-04-03T08:20:07;4.20;99.90
52509;DHT22;38420;53.150;6.370;2023-04-03T08:22:34;4.40;99.90
52509;DHT22;38420;53.150;6.370;2023-04-03T08:24:59;4.70;99.90
52509;DHT22;38420;53.150;6.370;2023-04-03T08:27:26;5.80;99.90
52509;DHT22;38420;53.150;6.370;2023-04-03T08:29:52;7.20;99.90
52509;DHT22;38420;53.150;6.370;2023-04-03T08:32:17;8.40;99.90
52509;DHT22;38420;53.150;6.370;2023-04-03T08:34:43;9.10;99.90
52509;DHT22;38420;53.150;6.370;2023-04-03T08:37:09;9.50;99.90
52509;DHT22;38420;53.150;6.370;2023-04-03T08:39:35;10.10;99.90
52509;DHT22;38420;53.150;6.370;2023-04-03T08:42:07;11.10;99.90
52509;DHT22;38420;53.150;6.370;2023-04-03T08:44:47;11.90;99.90
52509;DHT22;38420;53.150;6.370;2023-04-03T08:47:28;12.10;99.90
52509;DHT22;38420;53.150;6.370;2023-04-03T08:50:02;12.80;99.90
52509;DHT22;38420;53.150;6.370;2023-04-03T08:52:45;12.40;95.00
52509;DHT22;38420;53.150;6.370;2023-04-03T08:55:27;13.80;97.60
52509;DHT22;38420;53.150;6.370;2023-04-03T08:58:24;14.90;94.40
52509;DHT22;38420;53.150;6.370;2023-04-03T09:03:21;15.50;86.60
52509;DHT22;38420;53.150;6.370;2023-04-03T09:08:28;15.00;83.60
52509;DHT22;38420;53.150;6.370;2023-04-03T09:17:20;15.50;82.90
52509;DHT22;38420;53.150;6.370;2023-04-03T09:19:35;14.80;77.80
52509;DHT22;38420;53.150;6.370;2023-04-03T09:22:17;14.90;80.30
52509;DHT22;38420;53.150;6.370;2023-04-03T09:24:49;14.30;74.40
52509;DHT22;38420;53.150;6.370;2023-04-03T09:27:15;14.50;76.90
52509;DHT22;38420;53.150;6.370;2023-04-03T09:29:43;13.70;78.10
52509;DHT22;38420;53.150;6.370;2023-04-03T09:32:31;13.20;76.70
52509;DHT22;38420;53.150;6.370;2023-04-03T09:35:04;12.40;75.60
52509;DHT22;38420;53.150;6.370;2023-04-03T09:37:37;11.60;77.50
52509;DHT22;38420;53.150;6.370;2023-04-03T09:40:04;10.90;78.40
52509;DHT22;38420;53.150;6.370;2023-04-03T09:42:31;10.50;79.30
52509;DHT22;38420;53.150;6.370;2023-04-03T09:45:02;10.30;80.70
52509;DHT22;38420;53.150;6.370;2023-04-03T09:47:33;10.00;83.50
52509;DHT22;38420;53.150;6.370;2023-04-03T09:52:42;10.10;84.40
52509;DHT22;38420;53.150;6.370;2023-04-03T09:55:17;9.90;82.10
52509;DHT22;38420;53.150;6.370;2023-04-03T09:57:45;9.80;82.00
52509;DHT22;38420;53.150;6.370;2023-04-03T10:00:26;9.70;83.20
52509;DHT22;38420;53.150;6.370;2023-04-03T10:02:57;9.60;84.30
52509;DHT22;38420;53.150;6.370;2023-04-03T10:10:44;9.50;82.10
52509;DHT22;38420;53.150;6.370;2023-04-03T10:13:16;9.40;81.90
52509;DHT22;38420;53.150;6.370;2023-04-03T10:15:56;9.30;81.80
52509;DHT22;38420;53.150;6.370;2023-04-03T10:18:44;9.20;82.00
52509;DHT22;38420;53.150;6.370;2023-04-03T10:24:21;9.20;82.40
52509;DHT22;38420;53.150;6.370;2023-04-03T10:29:21;9.20;80.90
52509;DHT22;38420;53.150;6.370;2023-04-03T10:34:20;9.30;82.00
52509;DHT22;38420;53.150;6.370;2023-04-03T10:42:18;9.50;82.10
52509;DHT22;38420;53.150;6.370;2023-04-03T10:50:37;9.60;82.50
52509;DHT22;38420;53.150;6.370;2023-04-03T10:55:57;9.50;81.90
52509;DHT22;38420;53.150;6.370;2023-04-03T10:58:32;9.50;81.70
52509;DHT22;38420;53.150;6.370;2023-04-03T11:01:06;9.60;80.20
52509;DHT22;38420;53.150;6.370;2023-04-03T11:03:38;9.60;82.00
52509;DHT22;38420;53.150;6.370;2023-04-03T11:06:09;9.60;83.00
52509;DHT22;38420;53.150;6.370;2023-04-03T11:09:00;9.60;82.10
52509;DHT22;38420;53.150;6.370;2023-04-03T11:11:36;9.60;79.10
52509;DHT22;38420;53.150;6.370;2023-04-03T11:14:22;9.70;80.00
52509;DHT22;38420;53.150;6.370;2023-04-03T11:17:05;9.70;79.90
52509;DHT22;38420;53.150;6.370;2023-04-03T11:19:42;9.70;80.40
52509;DHT22;38420;53.150;6.370;2023-04-03T11:22:29;9.70;80.20
52509;DHT22;38420;53.150;6.370;2023-04-03T11:27:58;10.00;79.80
52509;DHT22;38420;53.150;6.370;2023-04-03T11:30:46;10.10;81.50
52509;DHT22;38420;53.150;6.370;2023-04-03T11:35:45;10.10;79.30
52509;DHT22;38420;53.150;6.370;2023-04-03T11:38:19;10.00;76.30
52509;DHT22;38420;53.150;6.370;2023-04-03T11:40:47;9.90;75.70
52509;DHT22;38420;53.150;6.370;2023-04-03T11:43:26;10.00;77.10
52509;DHT22;38420;53.150;6.370;2023-04-03T11:46:01;10.00;76.20
52509;DHT22;38420;53.150;6.370;2023-04-03T11:53:43;10.20;79.00
52509;DHT22;38420;53.150;6.370;2023-04-03T12:01:55;9.80;73.70
52509;DHT22;38420;53.150;6.370;2023-04-03T12:04:23;9.70;75.60
52509;DHT22;38420;53.150;6.370;2023-04-03T12:07:11;9.70;78.10
52509;DHT22;38420;53.150;6.370;2023-04-03T12:12:37;10.10;81.40
52509;DHT22;38420;53.150;6.370;2023-04-03T12:15:22;10.00;78.70
52509;DHT22;38420;53.150;6.370;2023-04-03T12:17:48;10.10;78.20
52509;DHT22;38420;53.150;6.370;2023-04-03T12:23:25;10.10;78.40
52509;DHT22;38420;53.150;6.370;2023-04-03T12:25:51;10.30;78.90
52509;DHT22;38420;53.150;6.370;2023-04-03T12:28:17;10.30;77.40
52509;DHT22;38420;53.150;6.370;2023-04-03T12:30:43;10.50;77.20
52509;DHT22;38420;53.150;6.370;2023-04-03T12:33:31;10.60;78.20
52509;DHT22;38420;53.150;6.370;2023-04-03T12:36:10;10.70;78.90
52509;DHT22;38420;53.150;6.370;2023-04-03T12:39:05;10.90;78.30
52509;DHT22;38420;53.150;6.370;2023-04-03T12:44:33;10.90;79.20
52509;DHT22;38420;53.150;6.370;2023-04-03T12:47:18;10.80;76.10
52509;DHT22;38420;53.150;6.370;2023-04-03T12:49:49;10.70;76.20
52509;DHT22;38420;53.150;6.370;2023-04-03T12:52:29;10.70;77.20
52509;DHT22;38420;53.150;6.370;2023-04-03T12:54:56;10.80;77.60
52509;DHT22;38420;53.150;6.370;2023-04-03T12:57:27;10.80;77.30
52509;DHT22;38420;53.150;6.370;2023-04-03T12:59:56;10.70;76.70
52509;DHT22;38420;53.150;6.370;2023-04-03T13:02:30;10.70;76.80
52509;DHT22;38420;53.150;6.370;2023-04-03T13:04:58;10.70;77.70
52509;DHT22;38420;53.150;6.370;2023-04-03T13:07:37;10.60;77.90
52509;DHT22;38420;53.150;6.370;2023-04-03T13:12:34;10.70;78.90
52509;DHT22;38420;53.150;6.370;2023-04-03T13:15:11;10.90;77.80
52509;DHT22;38420;53.150;6.370;2023-04-03T13:17:42;10.90;77.20
52509;DHT22;38420;53.150;6.370;2023-04-03T13:25:21;10.70;75.80
52509;DHT22;38420;53.150;6.370;2023-04-03T13:27:48;10.70;76.30
52509;DHT22;38420;53.150;6.370;2023-04-03T13:30:29;10.60;76.80
52509;DHT22;38420;53.150;6.370;2023-04-03T13:32:57;10.30;75.90
52509;DHT22;38420;53.150;6.370;2023-04-03T13:37:57;10.50;78.40
52509;DHT22;38420;53.150;6.370;2023-04-03T13:40:24;10.50;77.90
52509;DHT22;38420;53.150;6.370;2023-04-03T13:43:16;10.60;77.50
52509;DHT22;38420;53.150;6.370;2023-04-03T13:48:46;10.60;78.10
52509;DHT22;38420;53.150;6.370;2023-04-03T13:58:55;10.50;76.40
52509;DHT22;38420;53.150;6.370;2023-04-03T14:01:22;10.40;76.00
52509;DHT22;38420;53.150;6.370;2023-04-03T14:06:20;10.40;77.80
52509;DHT22;38420;53.150;6.370;2023-04-03T14:08:47;10.40;77.00
52509;DHT22;38420;53.150;6.370;2023-04-03T14:11:30;10.40;77.30
52509;DHT22;38420;53.150;6.370;2023-04-03T14:13:59;10.50;77.70
52509;DHT22;38420;53.150;6.370;2023-04-03T14:16:28;10.50;77.60
52509;DHT22;38420;53.150;6.370;2023-04-03T14:18:55;10.50;75.70
52509;DHT22;38420;53.150;6.370;2023-04-03T14:21:22;10.40;76.70
52509;DHT22;38420;53.150;6.370;2023-04-03T14:23:49;10.50;76.90
52509;DHT22;38420;53.150;6.370;2023-04-03T14:26:18;10.60;76.80
52509;DHT22;38420;53.150;6.370;2023-04-03T14:28:46;10.60;76.80
52509;DHT22;38420;53.150;6.370;2023-04-03T14:31:13;10.70;78.20
52509;DHT22;38420;53.150;6.370;2023-04-03T14:33:40;10.90;79.00
52509;DHT22;38420;53.150;6.370;2023-04-03T14:38:38;10.80;78.90
52509;DHT22;38420;53.150;6.370;2023-04-03T14:41:03;10.80;80.80
52509;DHT22;38420;53.150;6.370;2023-04-03T14:43:29;10.70;80.20
52509;DHT22;38420;53.150;6.370;2023-04-03T14:45:55;10.50;80.40
52509;DHT22;38420;53.150;6.370;2023-04-03T14:48:26;10.40;81.20
52509;DHT22;38420;53.150;6.370;2023-04-03T14:50:53;10.40;80.80
52509;DHT22;38420;53.150;6.370;2023-04-03T14:53:19;10.40;81.40
52509;DHT22;38420;53.150;6.370;2023-04-03T14:55:48;10.40;80.90
52509;DHT22;38420;53.150;6.370;2023-04-03T14:58:17;10.30;81.80
52509;DHT22;38420;53.150;6.370;2023-04-03T15:00:43;10.30;81.80
52509;DHT22;38420;53.150;6.370;2023-04-03T15:03:17;10.20;82.50
52509;DHT22;38420;53.150;6.370;2023-04-03T15:05:47;10.20;82.40
52509;DHT22;38420;53.150;6.370;2023-04-03T15:08:22;10.30;82.40
52509;DHT22;38420;53.150;6.370;2023-04-03T15:10:50;10.20;81.40
52509;DHT22;38420;53.150;6.370;2023-04-03T15:13:19;10.00;80.50
52509;DHT22;38420;53.150;6.370;2023-04-03T15:15:45;10.50;81.60
52509;DHT22;38420;53.150;6.370;2023-04-03T15:18:19;9.90;82.00
52509;DHT22;38420;53.150;6.370;2023-04-03T15:20:46;9.80;83.10
52509;DHT22;38420;53.150;6.370;2023-04-03T15:23:13;9.70;83.60
52509;DHT22;38420;53.150;6.370;2023-04-03T15:25:42;9.60;84.20
52509;DHT22;38420;53.150;6.370;2023-04-03T15:28:13;9.60;85.60
52509;DHT22;38420;53.150;6.370;2023-04-03T15:30:42;9.90;86.80
52509;DHT22;38420;53.150;6.370;2023-04-03T15:33:08;9.60;85.70
52509;DHT22;38420;53.150;6.370;2023-04-03T15:35:34;9.60;86.20
52509;DHT22;38420;53.150;6.370;2023-04-03T15:37:59;9.60;87.50
52509;DHT22;38420;53.150;6.370;2023-04-03T15:40:26;9.60;87.20
52509;DHT22;38420;53.150;6.370;2023-04-03T15:42:51;9.60;88.20
52509;DHT22;38420;53.150;6.370;2023-04-03T15:45:17;9.80;88.20
52509;DHT22;38420;53.150;6.370;2023-04-03T15:47:43;9.40;88.20
52509;DHT22;38420;53.150;6.370;2023-04-03T15:50:09;9.30;87.70
52509;DHT22;38420;53.150;6.370;2023-04-03T15:52:35;9.30;87.90
52509;DHT22;38420;53.150;6.370;2023-04-03T15:55:01;9.30;89.70
52509;DHT22;38420;53.150;6.370;2023-04-03T15:57:26;9.30;89.70
52509;DHT22;38420;53.150;6.370;2023-04-03T15:59:52;9.40;89.70
52509;DHT22;38420;53.150;6.370;2023-04-03T16:02:18;9.40;87.30
52509;DHT22;38420;53.150;6.370;2023-04-03T16:04:44;9.40;84.60
52509;DHT22;38420;53.150;6.370;2023-04-03T16:07:10;9.40;85.70
52509;DHT22;38420;53.150;6.370;2023-04-03T16:09:36;9.40;84.80
52509;DHT22;38420;53.150;6.370;2023-04-03T16:12:02;9.40;84.80
52509;DHT22;38420;53.150;6.370;2023-04-03T16:14:28;9.40;85.60
52509;DHT22;38420;53.150;6.370;2023-04-03T16:16:56;9.30;85.80
52509;DHT22;38420;53.150;6.370;2023-04-03T16:19:22;9.20;87.00
52509;DHT22;38420;53.150;6.370;2023-04-03T16:21:48;9.20;88.50
52509;DHT22;38420;53.150;6.370;2023-04-03T16:24:13;9.10;87.10
52509;DHT22;38420;53.150;6.370;2023-04-03T16:26:39;9.10;87.60
52509;DHT22;38420;53.150;6.370;2023-04-03T16:29:04;9.00;88.00
52509;DHT22;38420;53.150;6.370;2023-04-03T16:31:32;8.80;88.60
52509;DHT22;38420;53.150;6.370;2023-04-03T16:33:58;8.80;89.20
52509;DHT22;38420;53.150;6.370;2023-04-03T16:36:24;8.80;89.70
52509;DHT22;38420;53.150;6.370;2023-04-03T16:38:51;8.80;90.20
52509;DHT22;38420;53.150;6.370;2023-04-03T16:41:16;8.80;90.30
52509;DHT22;38420;53.150;6.370;2023-04-03T16:43:42;8.70;90.20
52509;DHT22;38420;53.150;6.370;2023-04-03T16:46:08;8.70;90.40
52509;DHT22;38420;53.150;6.370;2023-04-03T16:48:33;8.60;90.90
52509;DHT22;38420;53.150;6.370;2023-04-03T16:50:59;8.50;90.60
52509;DHT22;38420;53.150;6.370;2023-04-03T16:53:25;8.40;90.70
52509;DHT22;38420;53.150;6.370;2023-04-03T16:55:51;8.30;91.20
52509;DHT22;38420;53.150;6.370;2023-04-03T16:58:17;8.30;91.50
52509;DHT22;38420;53.150;6.370;2023-04-03T17:00:43;8.20;92.00
52509;DHT22;38420;53.150;6.370;2023-04-03T17:03:08;8.20;92.10
52509;DHT22;38420;53.150;6.370;2023-04-03T17:05:34;8.20;92.30
52509;DHT22;38420;53.150;6.370;2023-04-03T17:08:00;8.10;92.10
52509;DHT22;38420;53.150;6.370;2023-04-03T17:10:27;8.00;92.30
52509;DHT22;38420;53.150;6.370;2023-04-03T17:12:53;8.00;92.60
52509;DHT22;38420;53.150;6.370;2023-04-03T17:15:19;7.90;92.90
52509;DHT22;38420;53.150;6.370;2023-04-03T17:17:46;7.90;93.10
52509;DHT22;38420;53.150;6.370;2023-04-03T17:20:12;7.90;93.10
52509;DHT22;38420;53.150;6.370;2023-04-03T17:22:38;8.00;93.30
52509;DHT22;38420;53.150;6.370;2023-04-03T17:25:04;8.20;93.60